sensor_id;sensor_type;location;lat;lon;timestamp;temperature;humidity
66337;SHT30;53139;45.576;5.304;2023-07-13T00:01:50;18.46;94.62
66337;SHT30;53139;45.576;5.304;2023-07-13T00:04:50;18.19;95.30
66337;SHT30;53139;45.576;5.304;2023-07-13T00:07:52;18.22;95.29
66337;SHT30;53139;45.576;5.304;2023-07-13T00:10:53;18.47;94.09
66337;SHT30;53139;45.576;5.304;2023-07-13T00:13:56;18.47;94.17
66337;SHT30;53139;45.576;5.304;2023-07-13T00:16:56;18.40;94.15
66337;SHT30;53139;45.576;5.304;2023-07-13T00:19:57;18.60;93.41
66337;SHT30;53139;45.576;5.304;2023-07-13T00:22:58;18.54;93.40
66337;SHT30;53139;45.576;5.304;2023-07-13T00:25:59;18.46;93.65
66337;SHT30;53139;45.576;5.304;2023-07-13T00:29:00;18.50;93.58
66337;SHT30;53139;45.576;5.304;2023-07-13T00:32:01;18.60;93.27
66337;SHT30;53139;45.576;5.304;2023-07-13T00:35:02;18.50;93.09
66337;SHT30;53139;45.576;5.304;2023-07-13T00:38:03;18.74;92.70
66337;SHT30;53139;45.576;5.304;2023-07-13T00:41:04;18.77;92.69
66337;SHT30;53139;45.576;5.304;2023-07-13T00:44:04;18.70;93.71
66337;SHT30;53139;45.576;5.304;2023-07-13T00:47:05;18.85;92.75
66337;SHT30;53139;45.576;5.304;2023-07-13T00:50:09;18.95;92.32
66337;SHT30;53139;45.576;5.304;2023-07-13T00:53:10;18.95;93.45
66337;SHT30;53139;45.576;5.304;2023-07-13T00:56:12;19.15;92.54
66337;SHT30;53139;45.576;5.304;2023-07-13T00:59:15;19.14;92.82
66337;SHT30;53139;45.576;5.304;2023-07-13T01:02:17;19.29;90.75
66337;SHT30;53139;45.576;5.304;2023-07-13T01:05:20;19.33;91.01
66337;SHT30;53139;45.576;5.304;2023-07-13T01:08:21;19.25;91.51
66337;SHT30;53139;45.576;5.304;2023-07-13T01:11:22;19.50;89.02
66337;SHT30;53139;45.576;5.304;2023-07-13T01:14:22;19.42;90.11
66337;SHT30;53139;45.576;5.304;2023-07-13T01:17:22;19.43;89.74
66337;SHT30;53139;45.576;5.304;2023-07-13T01:20:23;19.42;89.18
66337;SHT30;53139;45.576;5.304;2023-07-13T01:23:26;19.53;88.30
66337;SHT30;53139;45.576;5.304;2023-07-13T01:26:26;19.39;89.45
66337;SHT30;53139;45.576;5.304;2023-07-13T01:29:27;19.39;88.58
66337;SHT30;53139;45.576;5.304;2023-07-13T01:32:27;19.32;90.36
66337;SHT30;53139;45.576;5.304;2023-07-13T01:35:28;19.43;87.97
66337;SHT30;53139;45.576;5.304;2023-07-13T01:38:28;19.40;87.32
66337;SHT30;53139;45.576;5.304;2023-07-13T01:41:29;19.29;89.79
66337;SHT30;53139;45.576;5.304;2023-07-13T01:44:29;19.28;88.51
66337;SHT30;53139;45.576;5.304;2023-07-13T01:47:30;19.25;89.09
66337;SHT30;53139;45.576;5.304;2023-07-13T01:50:31;19.36;88.69
66337;SHT30;53139;45.576;5.304;2023-07-13T01:53:31;19.46;87.11
66337;SHT30;53139;45.576;5.304;2023-07-13T01:56:31;19.29;86.44
66337;SHT30;53139;45.576;5.304;2023-07-13T01:59:32;19.36;84.59
66337;SHT30;53139;45.576;5.304;2023-07-13T02:02:33;19.28;85.21
66337;SHT30;53139;45.576;5.304;2023-07-13T02:05:34;19.22;84.74
66337;SHT30;53139;45.576;5.304;2023-07-13T02:08:34;19.09;86.05
66337;SHT30;53139;45.576;5.304;2023-07-13T02:11:34;19.22;84.29
66337;SHT30;53139;45.576;5.304;2023-07-13T02:14:35;19.11;86.18
66337;SHT30;53139;45.576;5.304;2023-07-13T02:17:36;19.14;83.61
66337;SHT30;53139;45.576;5.304;2023-07-13T02:20:36;19.01;85.29
66337;SHT30;53139;45.576;5.304;2023-07-13T02:23:37;19.12;83.78
66337;SHT30;53139;45.576;5.304;2023-07-13T02:26:37;19.14;83.31
66337;SHT30;53139;45.576;5.304;2023-07-13T02:29:37;19.07;83.92
66337;SHT30;53139;45.576;5.304;2023-07-13T02:32:38;19.04;83.73
66337;SHT30;53139;45.576;5.304;2023-07-13T02:35:38;19.18;82.21
66337;SHT30;53139;45.576;5.304;2023-07-13T02:38:39;19.20;82.46
66337;SHT30;53139;45.576;5.304;2023-07-13T02:41:39;19.09;82.30
66337;SHT30;53139;45.576;5.304;2023-07-13T02:44:39;17.85;89.34
66337;SHT30;53139;45.576;5.304;2023-07-13T02:47:41;16.94;96.02
66337;SHT30;53139;45.576;5.304;2023-07-13T02:50:42;16.99;97.08
66337;SHT30;53139;45.576;5.304;2023-07-13T02:53:43;16.37;97.97
66337;SHT30;53139;45.576;5.304;2023-07-13T02:56:44;15.97;98.54
66337;SHT30;53139;45.576;5.304;2023-07-13T02:59:44;15.75;98.60
66337;SHT30;53139;45.576;5.304;2023-07-13T03:02:45;15.85;99.99
66337;SHT30;53139;45.576;5.304;2023-07-13T03:05:46;15.85;99.99
66337;SHT30;53139;45.576;5.304;2023-07-13T03:08:50;15.94;99.99
66337;SHT30;53139;45.576;5.304;2023-07-13T03:11:54;15.95;99.99
66337;SHT30;53139;45.576;5.304;2023-07-13T03:14:55;15.95;99.99
66337;SHT30;53139;45.576;5.304;2023-07-13T03:17:55;15.99;99.99
66337;SHT30;53139;45.576;5.304;2023-07-13T03:20:56;15.95;99.99
66337;SHT30;53139;45.576;5.304;2023-07-13T03:23:56;15.88;99.99
66337;SHT30;53139;45.576;5.304;2023-07-13T03:26:57;15.97;99.99
66337;SHT30;53139;45.576;5.304;2023-07-13T03:29:57;15.88;99.99
66337;SHT30;53139;45.576;5.304;2023-07-13T03:32:57;15.97;99.99
66337;SHT30;53139;45.576;5.304;2023-07-13T03:35:58;15.98;99.99
66337;SHT30;53139;45.576;5.304;2023-07-13T03:39:00;16.02;99.99
66337;SHT30;53139;45.576;5.304;2023-07-13T03:42:00;15.92;99.99
66337;SHT30;53139;45.576;5.304;2023-07-13T03:45:01;15.90;99.99
66337;SHT30;53139;45.576;5.304;2023-07-13T03:48:01;15.71;99.99
66337;SHT30;53139;45.576;5.304;2023-07-13T03:51:02;15.73;99.99
66337;SHT30;53139;45.576;5.304;2023-07-13T03:54:03;15.47;99.99
66337;SHT30;53139;45.576;5.304;2023-07-13T03:57:03;15.44;99.99
66337;SHT30;53139;45.576;5.304;2023-07-13T04:00:04;15.53;99.99
66337;SHT30;53139;45.576;5.304;2023-07-13T04:03:06;15.35;99.99
66337;SHT30;53139;45.576;5.304;2023-07-13T04:06:13;15.39;99.99
66337;SHT30;53139;45.576;5.304;2023-07-13T04:09:15;15.43;99.99
66337;SHT30;53139;45.576;5.304;2023-07-13T04:12:15;15.22;99.99
66337;SHT30;53139;45.576;5.304;2023-07-13T04:15:16;15.22;99.99
66337;SHT30;53139;45.576;5.304;2023-07-13T04:18:17;15.36;99.99
66337;SHT30;53139;45.576;5.304;2023-07-13T04:21:17;15.22;99.99
66337;SHT30;53139;45.576;5.304;2023-07-13T04:24:17;15.36;99.99
66337;SHT30;53139;45.576;5.304;2023-07-13T04:27:19;15.30;99.99
66337;SHT30;53139;45.576;5.304;2023-07-13T04:30:20;15.36;99.99
66337;SHT30;53139;45.576;5.304;2023-07-13T04:33:20;15.37;99.99
66337;SHT30;53139;45.576;5.304;2023-07-13T04:36:24;15.37;99.99
66337;SHT30;53139;45.576;5.304;2023-07-13T04:39:27;15.32;99.99
66337;SHT30;53139;45.576;5.304;2023-07-13T04:42:27;15.33;99.99
66337;SHT30;53139;45.576;5.304;2023-07-13T04:45:27;15.49;99.99
66337;SHT30;53139;45.576;5.304;2023-07-13T04:48:28;15.51;99.99
66337;SHT30;53139;45.576;5.304;2023-07-13T04:51:28;15.53;99.99
66337;SHT30;53139;45.576;5.304;2023-07-13T04:54:28;15.51;99.99
66337;SHT30;53139;45.576;5.304;2023-07-13T04:57:29;15.46;99.99
66337;SHT30;53139;45.576;5.304;2023-07-13T05:00:29;15.58;99.99
66337;SHT30;53139;45.576;5.304;2023-07-13T05:03:30;15.57;99.99
66337;SHT30;53139;45.576;5.304;2023-07-13T05:06:31;15.65;99.99
66337;SHT30;53139;45.576;5.304;2023-07-13T05:09:31;15.63;99.99
66337;SHT30;53139;45.576;5.304;2023-07-13T05:12:32;15.77;99.99
66337;SHT30;53139;45.576;5.304;2023-07-13T05:15:33;15.80;99.99
66337;SHT30;53139;45.576;5.304;2023-07-13T05:18:33;15.71;99.99
66337;SHT30;53139;45.576;5.304;2023-07-13T05:21:33;15.78;99.99
66337;SHT30;53139;45.576;5.304;2023-07-13T05:24:34;15.82;99.99
66337;SHT30;53139;45.576;5.304;2023-07-13T05:27:35;15.81;99.99
66337;SHT30;53139;45.576;5.304;2023-07-13T05:30:35;15.74;99.99
66337;SHT30;53139;45.576;5.304;2023-07-13T05:33:39;15.82;99.99
66337;SHT30;53139;45.576;5.304;2023-07-13T05:36:46;15.91;99.99
66337;SHT30;53139;45.576;5.304;2023-07-13T05:39:46;15.97;99.99
66337;SHT30;53139;45.576;5.304;2023-07-13T05:42:47;16.12;99.99
66337;SHT30;53139;45.576;5.304;2023-07-13T05:45:47;16.18;99.99
66337;SHT30;53139;45.576;5.304;2023-07-13T05:48:48;16.22;99.99
66337;SHT30;53139;45.576;5.304;2023-07-13T05:51:48;16.18;99.99
66337;SHT30;53139;45.576;5.304;2023-07-13T05:54:49;16.25;99.99
66337;SHT30;53139;45.576;5.304;2023-07-13T05:57:49;16.43;99.99
66337;SHT30;53139;45.576;5.304;2023-07-13T06:01:02;16.64;99.99
66337;SHT30;53139;45.576;5.304;2023-07-13T06:04:03;16.84;99.99
66337;SHT30;53139;45.576;5.304;2023-07-13T06:07:04;16.95;99.99
66337;SHT30;53139;45.576;5.304;2023-07-13T06:10:05;17.25;99.99
66337;SHT30;53139;45.576;5.304;2023-07-13T06:13:05;17.20;99.99
66337;SHT30;53139;45.576;5.304;2023-07-13T06:16:06;17.28;99.99
66337;SHT30;53139;45.576;5.304;2023-07-13T06:19:07;17.32;99.99
66337;SHT30;53139;45.576;5.304;2023-07-13T06:22:07;16.99;99.99
66337;SHT30;53139;45.576;5.304;2023-07-13T06:25:08;17.33;99.99
66337;SHT30;53139;45.576;5.304;2023-07-13T06:28:08;17.26;99.99
66337;SHT30;53139;45.576;5.304;2023-07-13T06:31:11;17.18;99.99
66337;SHT30;53139;45.576;5.304;2023-07-13T06:34:12;17.05;99.99
66337;SHT30;53139;45.576;5.304;2023-07-13T06:37:12;16.95;99.99
66337;SHT30;53139;45.576;5.304;2023-07-13T06:40:13;17.09;99.99
66337;SHT30;53139;45.576;5.304;2023-07-13T06:43:13;17.25;99.99
66337;SHT30;53139;45.576;5.304;2023-07-13T06:46:13;17.39;99.99
66337;SHT30;53139;45.576;5.304;2023-07-13T06:49:14;17.40;99.99
66337;SHT30;53139;45.576;5.304;2023-07-13T06:52:14;17.46;99.99
66337;SHT30;53139;45.576;5.304;2023-07-13T06:55:14;17.53;99.99
66337;SHT30;53139;45.576;5.304;2023-07-13T06:58:16;17.59;99.99
66337;SHT30;53139;45.576;5.304;2023-07-13T07:01:17;17.67;99.99
66337;SHT30;53139;45.576;5.304;2023-07-13T07:04:18;17.74;99.99
66337;SHT30;53139;45.576;5.304;2023-07-13T07:07:18;17.83;99.99
66337;SHT30;53139;45.576;5.304;2023-07-13T07:10:19;17.97;99.99
66337;SHT30;53139;45.576;5.304;2023-07-13T07:13:20;18.24;99.99
66337;SHT30;53139;45.576;5.304;2023-07-13T07:16:21;17.69;99.99
66337;SHT30;53139;45.576;5.304;2023-07-13T07:19:21;18.09;99.99
66337;SHT30;53139;45.576;5.304;2023-07-13T07:22:22;18.29;99.99
66337;SHT30;53139;45.576;5.304;2023-07-13T07:25:22;18.13;99.99
66337;SHT30;53139;45.576;5.304;2023-07-13T07:28:22;18.19;99.99
66337;SHT30;53139;45.576;5.304;2023-07-13T07:31:23;18.08;99.99
66337;SHT30;53139;45.576;5.304;2023-07-13T07:34:23;18.37;99.99
66337;SHT30;53139;45.576;5.304;2023-07-13T07:37:24;18.21;99.01
66337;SHT30;53139;45.576;5.304;2023-07-13T07:40:25;18.50;99.99
66337;SHT30;53139;45.576;5.304;2023-07-13T07:43:26;17.64;99.73
66337;SHT30;53139;45.576;5.304;2023-07-13T07:46:26;17.50;99.65
66337;SHT30;53139;45.576;5.304;2023-07-13T07:49:28;17.14;98.86
66337;SHT30;53139;45.576;5.304;2023-07-13T07:52:28;17.46;99.99
66337;SHT30;53139;45.576;5.304;2023-07-13T07:55:28;17.08;99.99
66337;SHT30;53139;45.576;5.304;2023-07-13T07:58:29;17.07;99.06
66337;SHT30;53139;45.576;5.304;2023-07-13T08:01:29;17.33;99.44
66337;SHT30;53139;45.576;5.304;2023-07-13T08:04:30;17.91;99.99
66337;SHT30;53139;45.576;5.304;2023-07-13T08:07:30;17.83;99.92
66337;SHT30;53139;45.576;5.304;2023-07-13T08:10:31;17.74;99.99
66337;SHT30;53139;45.576;5.304;2023-07-13T08:13:31;17.73;99.99
66337;SHT30;53139;45.576;5.304;2023-07-13T08:16:32;17.45;99.94
66337;SHT30;53139;45.576;5.304;2023-07-13T08:19:33;17.11;99.15
66337;SHT30;53139;45.576;5.304;2023-07-13T08:22:33;17.51;99.60
66337;SHT30;53139;45.576;5.304;2023-07-13T08:25:33;17.39;99.55
66337;SHT30;53139;45.576;5.304;2023-07-13T08:28:34;17.66;98.47
66337;SHT30;53139;45.576;5.304;2023-07-13T08:31:34;17.81;99.38
66337;SHT30;53139;45.576;5.304;2023-07-13T08:34:35;17.88;97.71
66337;SHT30;53139;45.576;5.304;2023-07-13T08:37:35;17.80;97.74
66337;SHT30;53139;45.576;5.304;2023-07-13T08:40:36;17.70;97.81
66337;SHT30;53139;45.576;5.304;2023-07-13T08:43:37;18.12;97.26
66337;SHT30;53139;45.576;5.304;2023-07-13T08:46:40;19.42;97.17
66337;SHT30;53139;45.576;5.304;2023-07-13T08:49:41;19.43;93.96
66337;SHT30;53139;45.576;5.304;2023-07-13T08:52:43;19.59;96.12
66337;SHT30;53139;45.576;5.304;2023-07-13T08:55:44;18.68;95.77
66337;SHT30;53139;45.576;5.304;2023-07-13T08:59:13;19.04;94.14
66337;SHT30;53139;45.576;5.304;2023-07-13T09:02:30;22.55;82.80
66337;SHT30;53139;45.576;5.304;2023-07-13T09:05:40;23.90;74.75
66337;SHT30;53139;45.576;5.304;2023-07-13T09:09:00;26.85;64.45
66337;SHT30;53139;45.576;5.304;2023-07-13T09:15:30;29.45;61.33
66337;SHT30;53139;45.576;5.304;2023-07-13T09:18:49;30.20;59.94
66337;SHT30;53139;45.576;5.304;2023-07-13T09:21:52;29.43;63.38
66337;SHT30;53139;45.576;5.304;2023-07-13T09:25:35;27.04;62.39
66337;SHT30;53139;45.576;5.304;2023-07-13T09:28:38;33.10;51.66
66337;SHT30;53139;45.576;5.304;2023-07-13T09:31:44;31.03;54.75
66337;SHT30;53139;45.576;5.304;2023-07-13T09:34:51;28.54;54.24
66337;SHT30;53139;45.576;5.304;2023-07-13T09:37:56;28.12;56.91
66337;SHT30;53139;45.576;5.304;2023-07-13T09:41:08;28.54;60.94
66337;SHT30;53139;45.576;5.304;2023-07-13T09:44:14;29.92;58.10
66337;SHT30;53139;45.576;5.304;2023-07-13T09:47:17;32.09;53.00
66337;SHT30;53139;45.576;5.304;2023-07-13T09:50:18;32.91;48.85
66337;SHT30;53139;45.576;5.304;2023-07-13T09:53:19;28.60;58.45
66337;SHT30;53139;45.576;5.304;2023-07-13T09:56:28;29.22;53.53
66337;SHT30;53139;45.576;5.304;2023-07-13T09:59:34;27.47;55.16
66337;SHT30;53139;45.576;5.304;2023-07-13T10:02:35;23.76;65.93
66337;SHT30;53139;45.576;5.304;2023-07-13T10:05:41;31.36;54.02
66337;SHT30;53139;45.576;5.304;2023-07-13T10:08:44;32.31;52.44
66337;SHT30;53139;45.576;5.304;2023-07-13T10:11:45;32.56;54.78
66337;SHT30;53139;45.576;5.304;2023-07-13T10:14:46;31.84;50.72
66337;SHT30;53139;45.576;5.304;2023-07-13T10:17:49;31.23;52.67
66337;SHT30;53139;45.576;5.304;2023-07-13T10:21:12;33.07;53.38
66337;SHT30;53139;45.576;5.304;2023-07-13T10:24:29;29.47;47.80
66337;SHT30;53139;45.576;5.304;2023-07-13T10:27:35;30.77;53.03
66337;SHT30;53139;45.576;5.304;2023-07-13T10:30:40;30.84;55.32
66337;SHT30;53139;45.576;5.304;2023-07-13T10:33:42;30.81;56.61
66337;SHT30;53139;45.576;5.304;2023-07-13T10:36:48;29.75;49.61
66337;SHT30;53139;45.576;5.304;2023-07-13T10:39:50;33.12;47.90
66337;SHT30;53139;45.576;5.304;2023-07-13T10:42:55;35.16;45.52
66337;SHT30;53139;45.576;5.304;2023-07-13T10:45:59;34.23;44.23
66337;SHT30;53139;45.576;5.304;2023-07-13T10:49:05;34.89;46.21
66337;SHT30;53139;45.576;5.304;2023-07-13T10:52:05;35.07;41.04
66337;SHT30;53139;45.576;5.304;2023-07-13T10:55:54;36.02;45.43
66337;SHT30;53139;45.576;5.304;2023-07-13T10:59:10;34.40;46.64
66337;SHT30;53139;45.576;5.304;2023-07-13T11:02:22;33.83;41.75
66337;SHT30;53139;45.576;5.304;2023-07-13T11:05:29;35.37;44.77
66337;SHT30;53139;45.576;5.304;2023-07-13T11:11:35;35.23;37.66
66337;SHT30;53139;45.576;5.304;2023-07-13T11:18:02;36.24;41.08
66337;SHT30;53139;45.576;5.304;2023-07-13T11:24:17;29.06;53.26
66337;SHT30;53139;45.576;5.304;2023-07-13T11:27:43;35.24;40.16
66337;SHT30;53139;45.576;5.304;2023-07-13T11:30:48;34.08;45.30
66337;SHT30;53139;45.576;5.304;2023-07-13T11:33:53;38.86;40.46
66337;SHT30;53139;45.576;5.304;2023-07-13T11:36:57;39.26;40.79
66337;SHT30;53139;45.576;5.304;2023-07-13T11:39:59;36.09;38.91
66337;SHT30;53139;45.576;5.304;2023-07-13T11:43:00;37.59;39.25
66337;SHT30;53139;45.576;5.304;2023-07-13T11:46:25;36.70;37.27
66337;SHT30;53139;45.576;5.304;2023-07-13T11:49:38;37.34;37.16
66337;SHT30;53139;45.576;5.304;2023-07-13T11:52:46;35.26;37.63
66337;SHT30;53139;45.576;5.304;2023-07-13T11:55:48;39.00;37.86
66337;SHT30;53139;45.576;5.304;2023-07-13T11:58:51;36.91;37.19
66337;SHT30;53139;45.576;5.304;2023-07-13T12:01:55;37.21;36.49
66337;SHT30;53139;45.576;5.304;2023-07-13T12:04:56;35.89;37.05
66337;SHT30;53139;45.576;5.304;2023-07-13T12:07:57;37.56;38.53
66337;SHT30;53139;45.576;5.304;2023-07-13T12:11:01;37.73;33.70
66337;SHT30;53139;45.576;5.304;2023-07-13T12:14:05;39.25;36.52
66337;SHT30;53139;45.576;5.304;2023-07-13T12:17:20;37.36;38.43
66337;SHT30;53139;45.576;5.304;2023-07-13T12:20:24;36.26;35.97
66337;SHT30;53139;45.576;5.304;2023-07-13T12:23:29;37.50;35.37
66337;SHT30;53139;45.576;5.304;2023-07-13T12:26:31;37.85;34.61
66337;SHT30;53139;45.576;5.304;2023-07-13T12:29:32;37.15;37.72
66337;SHT30;53139;45.576;5.304;2023-07-13T12:32:33;40.04;33.92
66337;SHT30;53139;45.576;5.304;2023-07-13T12:35:40;40.35;39.00
66337;SHT30;53139;45.576;5.304;2023-07-13T12:38:45;41.27;36.13
66337;SHT30;53139;45.576;5.304;2023-07-13T12:41:48;39.15;37.99
66337;SHT30;53139;45.576;5.304;2023-07-13T12:44:48;39.76;38.83
66337;SHT30;53139;45.576;5.304;2023-07-13T12:48:03;41.30;37.82
66337;SHT30;53139;45.576;5.304;2023-07-13T12:51:10;40.89;33.02
66337;SHT30;53139;45.576;5.304;2023-07-13T12:54:17;39.77;34.07
66337;SHT30;53139;45.576;5.304;2023-07-13T12:57:18;41.34;36.00
66337;SHT30;53139;45.576;5.304;2023-07-13T13:03:37;34.66;36.26
66337;SHT30;53139;45.576;5.304;2023-07-13T13:06:38;40.55;32.23
66337;SHT30;53139;45.576;5.304;2023-07-13T13:09:41;39.86;33.73
66337;SHT30;53139;45.576;5.304;2023-07-13T13:12:41;36.66;34.41
66337;SHT30;53139;45.576;5.304;2023-07-13T13:15:45;38.32;33.60
66337;SHT30;53139;45.576;5.304;2023-07-13T13:18:45;38.84;36.50
66337;SHT30;53139;45.576;5.304;2023-07-13T13:21:46;39.74;37.11
66337;SHT30;53139;45.576;5.304;2023-07-13T13:24:46;39.22;34.48
66337;SHT30;53139;45.576;5.304;2023-07-13T13:27:47;39.12;34.91
66337;SHT30;53139;45.576;5.304;2023-07-13T13:30:49;39.60;33.07
66337;SHT30;53139;45.576;5.304;2023-07-13T13:33:50;40.80;35.90
66337;SHT30;53139;45.576;5.304;2023-07-13T13:36:52;42.58;33.06
66337;SHT30;53139;45.576;5.304;2023-07-13T13:39:52;41.31;33.78
66337;SHT30;53139;45.576;5.304;2023-07-13T13:42:53;42.33;33.44
66337;SHT30;53139;45.576;5.304;2023-07-13T13:45:58;40.58;37.72
66337;SHT30;53139;45.576;5.304;2023-07-13T13:48:59;40.07;33.00
66337;SHT30;53139;45.576;5.304;2023-07-13T13:52:00;38.63;33.55
66337;SHT30;53139;45.576;5.304;2023-07-13T13:55:00;38.88;35.32
66337;SHT30;53139;45.576;5.304;2023-07-13T13:58:01;38.84;33.72
66337;SHT30;53139;45.576;5.304;2023-07-13T14:01:02;39.28;35.40
66337;SHT30;53139;45.576;5.304;2023-07-13T14:04:02;40.76;30.36
66337;SHT30;53139;45.576;5.304;2023-07-13T14:07:03;40.55;32.92
66337;SHT30;53139;45.576;5.304;2023-07-13T14:10:15;40.78;32.38
66337;SHT30;53139;45.576;5.304;2023-07-13T14:13:26;37.05;34.40
66337;SHT30;53139;45.576;5.304;2023-07-13T14:16:29;37.84;35.89
66337;SHT30;53139;45.576;5.304;2023-07-13T14:19:32;37.22;34.84
66337;SHT30;53139;45.576;5.304;2023-07-13T14:22:32;38.00;31.36
66337;SHT30;53139;45.576;5.304;2023-07-13T14:25:33;37.16;36.55
66337;SHT30;53139;45.576;5.304;2023-07-13T14:28:43;38.00;37.51
66337;SHT30;53139;45.576;5.304;2023-07-13T14:31:44;40.48;34.50
66337;SHT30;53139;45.576;5.304;2023-07-13T14:34:45;39.29;33.65
66337;SHT30;53139;45.576;5.304;2023-07-13T14:37:46;39.74;34.19
66337;SHT30;53139;45.576;5.304;2023-07-13T14:40:47;40.00;30.65
66337;SHT30;53139;45.576;5.304;2023-07-13T14:43:47;40.72;35.47
66337;SHT30;53139;45.576;5.304;2023-07-13T14:46:49;39.10;31.90
66337;SHT30;53139;45.576;5.304;2023-07-13T14:49:51;39.17;31.99
66337;SHT30;53139;45.576;5.304;2023-07-13T14:52:51;39.41;31.36
66337;SHT30;53139;45.576;5.304;2023-07-13T14:55:51;38.93;34.36
66337;SHT30;53139;45.576;5.304;2023-07-13T14:58:52;38.87;33.51
66337;SHT30;53139;45.576;5.304;2023-07-13T15:01:53;37.34;34.97
66337;SHT30;53139;45.576;5.304;2023-07-13T15:04:55;38.36;34.69
66337;SHT30;53139;45.576;5.304;2023-07-13T15:08:01;37.61;37.96
66337;SHT30;53139;45.576;5.304;2023-07-13T15:11:02;37.64;33.72
66337;SHT30;53139;45.576;5.304;2023-07-13T15:14:04;36.50;33.57
66337;SHT30;53139;45.576;5.304;2023-07-13T15:17:08;39.01;32.74
66337;SHT30;53139;45.576;5.304;2023-07-13T15:20:26;38.35;32.80
66337;SHT30;53139;45.576;5.304;2023-07-13T15:23:27;38.45;34.00
66337;SHT30;53139;45.576;5.304;2023-07-13T15:26:31;37.73;34.90
66337;SHT30;53139;45.576;5.304;2023-07-13T15:29:32;35.24;36.51
66337;SHT30;53139;45.576;5.304;2023-07-13T15:32:32;36.89;31.55
66337;SHT30;53139;45.576;5.304;2023-07-13T15:35:33;38.32;33.54
66337;SHT30;53139;45.576;5.304;2023-07-13T15:38:35;37.46;35.88
66337;SHT30;53139;45.576;5.304;2023-07-13T15:41:38;35.48;35.79
66337;SHT30;53139;45.576;5.304;2023-07-13T15:44:41;35.75;39.90
66337;SHT30;53139;45.576;5.304;2023-07-13T15:47:42;38.16;33.49
66337;SHT30;53139;45.576;5.304;2023-07-13T15:50:47;37.61;34.67
66337;SHT30;53139;45.576;5.304;2023-07-13T15:53:49;36.88;37.54
66337;SHT30;53139;45.576;5.304;2023-07-13T15:56:55;36.98;35.41
66337;SHT30;53139;45.576;5.304;2023-07-13T15:59:56;35.43;34.83
66337;SHT30;53139;45.576;5.304;2023-07-13T16:02:56;36.00;35.89
66337;SHT30;53139;45.576;5.304;2023-07-13T16:05:57;37.16;33.53
66337;SHT30;53139;45.576;5.304;2023-07-13T16:08:57;32.98;39.96
66337;SHT30;53139;45.576;5.304;2023-07-13T16:11:58;34.63;37.47
66337;SHT30;53139;45.576;5.304;2023-07-13T16:14:59;36.09;37.64
66337;SHT30;53139;45.576;5.304;2023-07-13T16:18:00;36.64;36.20
66337;SHT30;53139;45.576;5.304;2023-07-13T16:21:00;35.93;36.98
66337;SHT30;53139;45.576;5.304;2023-07-13T16:24:01;36.68;35.15
66337;SHT30;53139;45.576;5.304;2023-07-13T16:27:02;36.07;37.07
66337;SHT30;53139;45.576;5.304;2023-07-13T16:30:33;36.70;36.21
66337;SHT30;53139;45.576;5.304;2023-07-13T16:33:34;37.18;35.78
66337;SHT30;53139;45.576;5.304;2023-07-13T16:36:35;36.03;37.42
66337;SHT30;53139;45.576;5.304;2023-07-13T16:39:36;36.13;37.51
66337;SHT30;53139;45.576;5.304;2023-07-13T16:42:36;34.20;34.77
66337;SHT30;53139;45.576;5.304;2023-07-13T16:45:37;34.59;34.13
66337;SHT30;53139;45.576;5.304;2023-07-13T16:48:43;35.45;34.58
66337;SHT30;53139;45.576;5.304;2023-07-13T16:51:51;35.26;34.95
66337;SHT30;53139;45.576;5.304;2023-07-13T16:54:52;35.71;35.95
66337;SHT30;53139;45.576;5.304;2023-07-13T16:57:54;34.99;37.03
66337;SHT30;53139;45.576;5.304;2023-07-13T17:00:55;33.03;36.76
66337;SHT30;53139;45.576;5.304;2023-07-13T17:03:56;33.77;35.53
66337;SHT30;53139;45.576;5.304;2023-07-13T17:07:00;32.84;38.95
66337;SHT30;53139;45.576;5.304;2023-07-13T17:10:21;32.69;39.56
66337;SHT30;53139;45.576;5.304;2023-07-13T17:13:24;31.59;38.39
66337;SHT30;53139;45.576;5.304;2023-07-13T17:16:25;30.96;40.53
66337;SHT30;53139;45.576;5.304;2023-07-13T17:19:30;32.64;37.51
66337;SHT30;53139;45.576;5.304;2023-07-13T17:22:31;33.19;39.86
66337;SHT30;53139;45.576;5.304;2023-07-13T17:25:31;32.72;41.09
66337;SHT30;53139;45.576;5.304;2023-07-13T17:28:32;31.32;38.52
66337;SHT30;53139;45.576;5.304;2023-07-13T17:31:32;30.63;38.84
66337;SHT30;53139;45.576;5.304;2023-07-13T17:34:33;31.32;38.99
66337;SHT30;53139;45.576;5.304;2023-07-13T17:37:34;29.46;39.84
66337;SHT30;53139;45.576;5.304;2023-07-13T17:40:35;29.42;41.77
66337;SHT30;53139;45.576;5.304;2023-07-13T17:43:35;29.73;42.64
66337;SHT30;53139;45.576;5.304;2023-07-13T17:46:35;29.43;42.45
66337;SHT30;53139;45.576;5.304;2023-07-13T17:49:36;29.57;39.02
66337;SHT30;53139;45.576;5.304;2023-07-13T17:52:37;28.95;43.55
66337;SHT30;53139;45.576;5.304;2023-07-13T17:55:53;28.53;44.99
66337;SHT30;53139;45.576;5.304;2023-07-13T17:58:54;27.26;45.89
66337;SHT30;53139;45.576;5.304;2023-07-13T18:01:57;26.64;46.27
66337;SHT30;53139;45.576;5.304;2023-07-13T18:04:57;27.40;45.67
66337;SHT30;53139;45.576;5.304;2023-07-13T18:07:59;26.04;45.53
66337;SHT30;53139;45.576;5.304;2023-07-13T18:11:01;25.51;51.27
66337;SHT30;53139;45.576;5.304;2023-07-13T18:14:02;25.90;49.11
66337;SHT30;53139;45.576;5.304;2023-07-13T18:17:03;24.56;52.04
66337;SHT30;53139;45.576;5.304;2023-07-13T18:20:05;24.06;50.30
66337;SHT30;53139;45.576;5.304;2023-07-13T18:23:18;23.79;53.35
66337;SHT30;53139;45.576;5.304;2023-07-13T18:26:19;23.42;55.00
66337;SHT30;53139;45.576;5.304;2023-07-13T18:29:20;23.10;54.11
66337;SHT30;53139;45.576;5.304;2023-07-13T18:32:21;22.93;56.40
66337;SHT30;53139;45.576;5.304;2023-07-13T18:35:27;22.62;58.10
66337;SHT30;53139;45.576;5.304;2023-07-13T18:38:29;22.49;57.24
66337;SHT30;53139;45.576;5.304;2023-07-13T18:41:29;22.17;59.89
66337;SHT30;53139;45.576;5.304;2023-07-13T18:44:31;22.04;56.04
66337;SHT30;53139;45.576;5.304;2023-07-13T18:47:32;21.87;58.08
66337;SHT30;53139;45.576;5.304;2023-07-13T18:50:35;21.90;56.76
66337;SHT30;53139;45.576;5.304;2023-07-13T18:53:41;21.45;61.32
66337;SHT30;53139;45.576;5.304;2023-07-13T18:56:42;21.15;62.04
66337;SHT30;53139;45.576;5.304;2023-07-13T18:59:43;21.02;61.34
66337;SHT30;53139;45.576;5.304;2023-07-13T19:02:43;20.88;62.95
66337;SHT30;53139;45.576;5.304;2023-07-13T19:05:45;20.47;64.55
66337;SHT30;53139;45.576;5.304;2023-07-13T19:08:45;20.47;64.18
66337;SHT30;53139;45.576;5.304;2023-07-13T19:11:46;19.85;68.48
66337;SHT30;53139;45.576;5.304;2023-07-13T19:14:48;19.91;65.81
66337;SHT30;53139;45.576;5.304;2023-07-13T19:17:50;19.70;67.08
66337;SHT30;53139;45.576;5.304;2023-07-13T19:20:55;19.49;67.72
66337;SHT30;53139;45.576;5.304;2023-07-13T19:23:59;19.29;69.35
66337;SHT30;53139;45.576;5.304;2023-07-13T19:27:00;18.59;73.39
66337;SHT30;53139;45.576;5.304;2023-07-13T19:30:00;18.39;72.17